Montclair, New Jersey
Current Conditions -  °F | °C
As of 3:53 PM on Tuesday 27 Jan 2015 (Local Time) from KCDW Reporting Station
Clear Clear  
Wind Chill: 16°   Ceiling: Unl
Heat Index: 27°   Visibility: 10mi
Dew Point: 15°   Wind: 13mph
Humidity: 61%   Direction: 330°NNW
Pressure: 29.67"   Gusts: 22mph
Location:  40.82°N, 74.22°W
Report Text: KCDW 272053Z 33011G19KT 10SM CLR M03/M09 A2967 RMK AO2 SLP056 T10281094 55002
Loading
Personal Weather Stations






























Interactive Weather Map New forecast layout! Learn more

10-Day Weather Forecast

Advertisements
Track Severe Weather on mobile